Time;durP1;ratioP1;P1;durP2;ratioP2;P2;SDS_P1;SDS_P2;PMS_P1;PMS_P2;Temp;Humidity;BMP_temperature;BMP_pressure;BME280_temperature;BME280_humidity;BME280_pressure;Samples;Min_cycle;Max_cycle;Signal;HPM_P1;HPM_P2
2022/07/05 00:01:53;;;;;;;5.28;3.88;;;;;;;18.99;100.00;96763.75;5069425;28;20068;-42
2022/07/05 00:04:21;;;;;;;10.35;4.18;;;;;;;18.78;100.00;96766.41;5068137;28;20076;-44
2022/07/05 00:09:39;;;;;;;4.78;3.95;;;;;;;18.84;100.00;96760.31;5065941;28;20076;-42
2022/07/05 00:12:08;;;;;;;5.70;3.83;;;;;;;18.84;100.00;96758.47;5068516;28;20538;-43
2022/07/05 00:14:36;;;;;;;7.45;4.03;;;;;;;18.76;100.00;96763.13;5071459;28;20102;-42
2022/07/05 00:17:05;;;;;;;5.10;4.10;;;;;;;18.94;100.00;96755.50;5089602;28;20067;-43
2022/07/05 00:19:33;;;;;;;5.25;4.38;;;;;;;18.91;100.00;96748.69;5088901;28;20075;-45
2022/07/05 00:22:02;;;;;;;5.68;4.20;;;;;;;18.96;100.00;96754.31;5089236;28;20090;-43
2022/07/05 00:24:30;;;;;;;5.68;4.45;;;;;;;19.02;100.00;96743.84;5087834;28;20068;-45
2022/07/05 00:27:00;;;;;;;5.70;4.13;;;;;;;18.99;100.00;96742.38;5084483;28;20111;-45
2022/07/05 00:29:29;;;;;;;4.88;4.00;;;;;;;18.90;100.00;96746.22;5082602;28;20071;-42
2022/07/05 00:31:57;;;;;;;6.65;4.15;;;;;;;19.02;100.00;96741.19;5081649;28;20082;-43
2022/07/05 00:34:26;;;;;;;5.60;3.95;;;;;;;19.05;100.00;96741.63;5102748;28;20078;-43
2022/07/05 00:36:54;;;;;;;7.28;4.20;;;;;;;19.07;100.00;96730.75;5083071;28;20438;-43
2022/07/05 00:39:22;;;;;;;5.28;4.43;;;;;;;19.14;100.00;96737.00;5082848;28;20067;-45
2022/07/05 00:41:51;;;;;;;8.23;4.22;;;;;;;18.84;100.00;96739.78;5087339;28;20071;-47
2022/07/05 00:44:29;;;;;;;5.68;4.20;;;;;;;18.93;100.00;96735.97;5089278;28;20060;-46
2022/07/05 00:46:57;;;;;;;6.35;4.20;;;;;;;18.71;100.00;96743.13;5083399;28;20469;-42
2022/07/05 00:49:26;;;;;;;5.95;4.07;;;;;;;18.67;100.00;96747.16;5089347;28;20120;-43
2022/07/05 00:51:54;;;;;;;5.68;4.20;;;;;;;18.78;100.00;96750.38;5088707;28;20063;-44
2022/07/05 00:54:43;;;;;;;5.68;4.07;;;;;;;18.70;100.00;96743.28;5087780;28;20047;-44
2022/07/05 00:57:11;;;;;;;6.30;4.18;;;;;;;18.71;100.00;96735.09;5085252;28;20514;-42
2022/07/05 00:59:41;;;;;;;4.50;4.10;;;;;;;18.86;100.00;96727.06;5088817;28;20071;-48
2022/07/05 01:02:09;;;;;;;6.43;4.22;;;;;;;18.81;100.00;96726.78;5083420;28;20086;-43
2022/07/05 01:04:45;;;;;;;5.15;3.78;;;;;;;18.76;100.00;96731.06;5081856;28;20087;-44
2022/07/05 01:07:14;;;;;;;8.93;3.67;;;;;;;18.64;100.00;96741.38;5082661;28;20076;-43
2022/07/05 01:09:43;;;;;;;5.40;3.92;;;;;;;18.54;100.00;96747.00;5091808;28;20074;-46
2022/07/05 01:12:11;;;;;;;5.82;3.30;;;;;;;18.58;100.00;96750.97;5084581;28;20537;-43
2022/07/05 01:14:42;;;;;;;7.97;4.00;;;;;;;18.58;100.00;96752.78;5084313;28;20064;-49
2022/07/05 01:17:11;;;;;;;5.43;3.53;;;;;;;18.52;100.00;96745.56;5082613;28;20067;-42
2022/07/05 01:19:39;;;;;;;5.03;3.38;;;;;;;18.52;100.00;96738.38;5089074;28;20082;-43
2022/07/05 01:22:14;;;;;;;3.85;2.90;;;;;;;18.44;100.00;96739.31;5072723;28;20285;-48
2022/07/05 01:24:44;;;;;;;6.88;3.50;;;;;;;18.44;100.00;96735.78;5068439;28;20064;-43
2022/07/05 01:27:13;;;;;;;4.18;3.33;;;;;;;18.36;100.00;96741.25;5068086;28;20064;-42
2022/07/05 01:29:42;;;;;;;5.82;3.60;;;;;;;18.38;100.00;96733.88;5065969;28;20072;-43
2022/07/05 01:32:10;;;;;;;4.45;3.40;;;;;;;18.36;100.00;96730.56;5067958;28;20063;-47
2022/07/05 01:34:40;;;;;;;4.32;3.53;;;;;;;18.31;100.00;96727.63;5069147;28;20095;-47
2022/07/05 01:37:09;;;;;;;5.25;3.55;;;;;;;18.28;100.00;96728.84;5081660;28;22723;-47
2022/07/05 01:39:37;;;;;;;5.45;3.20;;;;;;;18.31;100.00;96732.97;5084202;28;20068;-43
2022/07/05 01:42:07;;;;;;;7.25;3.42;;;;;;;18.38;100.00;96723.19;5087884;28;20398;-43
2022/07/05 01:44:36;;;;;;;7.22;3.90;;;;;;;18.33;100.00;96734.41;5080902;28;20113;-42
2022/07/05 01:47:06;;;;;;;5.25;3.72;;;;;;;18.30;100.00;96737.47;5086706;28;20067;-44
2022/07/05 01:49:44;;;;;;;4.45;3.40;;;;;;;18.29;100.00;96730.47;5088799;28;20099;-43
2022/07/05 01:52:13;;;;;;;6.80;3.67;;;;;;;18.25;100.00;96727.34;5087751;28;20485;-42
2022/07/05 01:54:43;;;;;;;4.50;3.60;;;;;;;18.20;100.00;96723.56;5081582;28;20075;-46
2022/07/05 01:57:13;;;;;;;7.32;3.90;;;;;;;18.33;100.00;96726.41;5087072;28;20068;-46
2022/07/05 01:59:41;;;;;;;6.40;4.03;;;;;;;18.34;100.00;96720.09;5088036;28;20071;-45
2022/07/05 02:02:10;;;;;;;7.65;3.83;;;;;;;18.37;100.00;96724.19;5088062;28;20070;-47
2022/07/05 02:04:38;;;;;;;4.63;3.83;;;;;;;18.29;100.00;96724.31;5093578;28;20075;-44
2022/07/05 02:07:08;;;;;;;4.38;3.65;;;;;;;18.47;100.00;96719.38;5088588;28;20056;-42
2022/07/05 02:09:37;;;;;;;4.72;3.63;;;;;;;18.27;100.00;96730.69;5084544;28;20460;-45
2022/07/05 02:12:06;;;;;;;8.27;4.05;;;;;;;18.27;100.00;96728.00;5079635;28;20063;-43
2022/07/05 02:14:36;;;;;;;5.75;3.90;;;;;;;18.26;100.00;96737.00;5083087;28;20063;-44
2022/07/05 02:17:04;;;;;;;5.53;3.72;;;;;;;18.16;100.00;96733.78;5078971;28;20728;-43
2022/07/05 02:19:33;;;;;;;5.13;3.80;;;;;;;18.18;100.00;96730.97;5083775;28;20086;-46
2022/07/05 02:22:01;;;;;;;6.28;4.00;;;;;;;18.16;100.00;96731.13;5084679;28;20071;-48
2022/07/05 02:24:30;;;;;;;5.22;3.78;;;;;;;18.22;100.00;96729.56;5081571;28;20067;-45
2022/07/05 02:26:59;;;;;;;5.55;4.20;;;;;;;18.23;100.00;96725.88;5083753;28;20060;-48
2022/07/05 02:29:27;;;;;;;6.90;3.90;;;;;;;18.18;100.00;96728.28;5083036;28;20545;-43
2022/07/05 02:31:57;;;;;;;6.50;4.25;;;;;;;18.15;100.00;96734.00;5085726;28;20071;-46
2022/07/05 02:34:25;;;;;;;7.25;4.00;;;;;;;18.09;100.00;96746.22;5087152;28;20080;-43
2022/07/05 02:36:54;;;;;;;10.32;3.97;;;;;;;18.10;100.00;96741.72;5086424;28;20094;-50
2022/07/05 02:39:22;;;;;;;4.80;3.83;;;;;;;18.01;100.00;96754.34;5085357;28;20067;-43
2022/07/05 02:41:51;;;;;;;7.15;4.35;;;;;;;18.07;100.00;96752.78;5085611;28;20067;-44
2022/07/05 02:44:19;;;;;;;4.70;4.18;;;;;;;18.02;100.00;96756.81;5082776;28;20113;-46
2022/07/05 02:46:47;;;;;;;6.13;4.22;;;;;;;18.00;100.00;96752.69;5084293;28;20094;-47
2022/07/05 02:49:17;;;;;;;8.15;4.78;;;;;;;17.92;100.00;96753.59;5082409;28;20529;-51
2022/07/05 02:51:45;;;;;;;8.57;4.45;;;;;;;17.96;100.00;96751.38;5080800;28;20060;-48
2022/07/05 02:54:14;;;;;;;4.63;3.92;;;;;;;17.90;100.00;96760.13;5079051;28;20066;-46
2022/07/05 02:56:42;;;;;;;5.97;3.72;;;;;;;17.84;100.00;96759.03;5074241;28;20067;-42
2022/07/05 02:59:11;;;;;;;4.32;3.80;;;;;;;17.93;100.00;96765.94;5078469;28;20067;-49
2022/07/05 03:01:39;;;;;;;5.00;3.88;;;;;;;17.85;100.00;96766.00;5080202;28;20530;-43
2022/07/05 03:04:09;;;;;;;5.72;3.70;;;;;;;17.85;100.00;96763.34;5060365;28;20519;-43
2022/07/05 03:06:39;;;;;;;7.80;4.53;;;;;;;17.81;100.00;96759.38;5080873;28;20086;-50
2022/07/05 03:09:08;;;;;;;6.25;4.07;;;;;;;17.83;100.00;96761.88;5094571;28;20530;-42
2022/07/05 03:11:36;;;;;;;4.82;4.30;;;;;;;17.95;100.00;96768.41;5084328;28;20545;-42
2022/07/05 03:14:04;;;;;;;7.55;3.90;;;;;;;17.96;100.00;96764.72;5082152;28;20072;-45
2022/07/05 03:16:33;;;;;;;4.97;3.97;;;;;;;17.95;100.00;96763.91;5084788;28;20079;-43
2022/07/05 03:19:02;;;;;;;5.28;3.65;;;;;;;17.85;100.00;96768.66;5084175;28;20070;-50
2022/07/05 03:21:30;;;;;;;5.15;4.43;;;;;;;17.86;100.00;96765.00;5082678;28;20072;-48
2022/07/05 03:23:59;;;;;;;5.65;4.05;;;;;;;17.74;100.00;96767.25;5084129;28;20063;-43
2022/07/05 03:26:28;;;;;;;5.47;4.03;;;;;;;17.68;100.00;96764.47;5084044;28;20066;-41
2022/07/05 03:28:56;;;;;;;8.55;4.10;;;;;;;17.71;100.00;96764.94;5083202;28;20076;-47
2022/07/05 03:31:24;;;;;;;9.27;4.45;;;;;;;17.79;100.00;96764.09;5083608;28;20107;-45
2022/07/05 03:33:53;;;;;;;5.13;4.10;;;;;;;17.76;100.00;96767.13;5084145;28;20068;-43
2022/07/05 03:36:21;;;;;;;5.90;4.22;;;;;;;17.83;100.00;96764.56;5081155;28;20083;-43
2022/07/05 03:38:49;;;;;;;5.15;4.40;;;;;;;17.91;100.00;96765.28;5079254;28;20142;-44
2022/07/05 03:41:19;;;;;;;6.32;4.03;;;;;;;17.98;100.00;96768.88;5081439;28;20060;-43
2022/07/05 03:43:48;;;;;;;6.22;3.85;;;;;;;17.89;100.00;96766.47;5082874;28;20142;-45
2022/07/05 03:46:16;;;;;;;7.70;4.30;;;;;;;18.05;100.00;96762.81;5081777;28;20075;-47
2022/07/05 03:48:44;;;;;;;5.95;4.47;;;;;;;18.19;100.00;96757.44;5084229;28;20177;-44
2022/07/05 03:51:13;;;;;;;4.65;4.05;;;;;;;18.21;100.00;96751.94;5080000;28;20800;-45
2022/07/05 03:53:41;;;;;;;8.57;3.90;;;;;;;18.17;100.00;96754.16;5079448;28;20534;-45
2022/07/05 03:56:10;;;;;;;7.03;3.72;;;;;;;17.97;100.00;96759.22;5072334;28;20079;-46
2022/07/05 03:58:40;;;;;;;4.57;3.50;;;;;;;17.90;100.00;96768.16;5081923;28;20102;-43
2022/07/05 04:01:09;;;;;;;4.63;3.55;;;;;;;18.07;100.00;96774.97;5086076;28;20478;-47
2022/07/05 04:03:37;;;;;;;5.80;3.63;;;;;;;18.05;100.00;96766.28;5079465;28;20662;-42
2022/07/05 04:06:10;;;;;;;4.00;3.28;;;;;;;17.96;100.00;96775.41;5081296;28;20067;-46
2022/07/05 04:08:38;;;;;;;10.57;3.58;;;;;;;17.90;100.00;96782.31;5076977;28;20060;-45
2022/07/05 04:11:07;;;;;;;6.68;3.67;;;;;;;17.93;100.00;96773.94;5084760;28;20064;-46
2022/07/05 04:13:36;;;;;;;5.25;3.50;;;;;;;18.03;100.00;96776.31;5079110;28;20072;-42
2022/07/05 04:16:05;;;;;;;9.23;3.33;;;;;;;17.94;100.00;96778.25;5082128;28;20071;-43
2022/07/05 04:18:34;;;;;;;4.57;3.15;;;;;;;17.96;100.00;96778.06;5079870;28;20086;-44
2022/07/05 04:21:03;;;;;;;7.25;3.60;;;;;;;17.91;100.00;96785.81;5075491;28;20075;-45
2022/07/05 04:23:31;;;;;;;8.32;3.70;;;;;;;17.98;100.00;96782.22;5070941;28;20075;-53
2022/07/05 04:26:01;;;;;;;6.10;3.25;;;;;;;18.14;100.00;96783.88;5081164;28;20084;-48
2022/07/05 04:28:30;;;;;;;5.25;3.75;;;;;;;18.26;100.00;96789.56;5087537;28;20569;-53
2022/07/05 04:30:59;;;;;;;5.38;3.50;;;;;;;18.25;100.00;96786.09;5089731;28;20071;-46
2022/07/05 04:33:29;;;;;;;4.30;3.58;;;;;;;18.27;100.00;96784.06;5084006;28;20074;-45
2022/07/05 04:35:57;;;;;;;4.55;3.47;;;;;;;19.03;100.00;96761.53;5089840;28;20064;-44
2022/07/05 04:38:25;;;;;;;5.57;3.47;;;;;;;18.78;100.00;96761.06;5089529;28;20447;-47
2022/07/05 04:40:54;;;;;;;6.32;3.63;;;;;;;18.45;100.00;96766.84;5089260;28;20102;-49
2022/07/05 04:43:22;;;;;;;6.10;3.80;;;;;;;18.50;100.00;96781.25;5089679;28;20526;-50
2022/07/05 04:45:50;;;;;;;8.65;3.90;;;;;;;18.41;100.00;96774.41;5083705;28;20478;-46
2022/07/05 04:48:24;;;;;;;5.90;3.67;;;;;;;18.40;100.00;96775.38;5089408;28;20565;-50
2022/07/05 04:50:53;;;;;;;11.45;4.00;;;;;;;18.47;100.00;96770.94;5088681;28;20044;-44
2022/07/05 04:53:22;;;;;;;7.63;4.00;;;;;;;18.43;100.00;96780.34;5088614;28;20081;-45
2022/07/05 04:55:50;;;;;;;6.00;4.28;;;;;;;18.44;100.00;96778.50;5092983;28;20083;-49
2022/07/05 04:58:18;;;;;;;6.97;3.80;;;;;;;18.65;100.00;96777.75;5089431;28;20559;-45
2022/07/05 05:00:47;;;;;;;7.72;3.95;;;;;;;18.53;100.00;96779.25;5086338;28;20070;-49
2022/07/05 05:03:15;;;;;;;10.05;4.25;;;;;;;18.58;100.00;96779.50;5080973;28;20065;-50
2022/07/05 05:05:44;;;;;;;7.07;4.70;;;;;;;19.21;100.00;96770.78;5088587;28;20071;-46
2022/07/05 05:08:32;;;;;;;5.25;4.00;;;;;;;19.21;100.00;96757.41;5088834;28;20518;-50
2022/07/05 05:11:00;;;;;;;5.65;4.20;;;;;;;19.38;100.00;96751.81;5089249;28;20084;-51
2022/07/05 05:13:28;;;;;;;5.90;4.63;;;;;;;21.01;100.00;96713.75;5086973;28;20071;-47
2022/07/05 05:15:57;;;;;;;5.88;3.60;;;;;;;21.13;100.00;96703.25;5088094;28;20423;-44
2022/07/05 05:18:27;;;;;;;4.80;3.95;;;;;;;21.54;100.00;96704.91;5085472;28;20066;-51
2022/07/05 05:20:56;;;;;;;8.75;3.75;;;;;;;22.50;100.00;96678.25;5088400;28;20093;-44
2022/07/05 05:23:25;;;;;;;8.10;3.38;;;;;;;22.55;100.00;96668.72;5088963;28;20067;-51
2022/07/05 05:25:54;;;;;;;4.15;3.20;;;;;;;22.90;100.00;96669.94;5088971;28;20083;-50
2022/07/05 05:28:22;;;;;;;4.30;3.15;;;;;;;22.50;100.00;96664.81;5086483;28;20767;-50
2022/07/05 05:30:51;;;;;;;3.47;3.05;;;;;;;22.60;100.00;96663.50;5088628;28;20549;-50
2022/07/05 05:33:19;;;;;;;5.85;3.03;;;;;;;22.65;100.00;96661.81;5088623;28;20071;-51
2022/07/05 05:35:54;;;;;;;7.75;3.28;;;;;;;22.95;100.00;96663.94;5089072;28;20177;-51
2022/07/05 05:38:24;;;;;;;6.05;3.10;;;;;;;22.52;100.00;96665.41;5088208;28;20066;-54
2022/07/05 05:40:53;;;;;;;;;;;;;;;23.17;100.00;96664.41;5089070;28;20074;-48
2022/07/05 05:43:21;;;;;;;7.90;3.13;;;;;;;22.45;100.00;96664.63;5088844;28;19970;-47
2022/07/05 05:45:52;;;;;;;5.78;3.25;;;;;;;23.33;100.00;96669.25;5087965;28;20075;-47
2022/07/05 05:48:20;;;;;;;5.80;3.00;;;;;;;23.25;100.00;96664.13;5086149;28;20076;-47
2022/07/05 05:50:50;;;;;;;5.63;3.47;;;;;;;22.15;100.00;96679.63;5091654;28;20079;-48
2022/07/05 05:53:19;;;;;;;;;;;;;;;22.66;100.00;96681.47;5095266;28;20064;-48
2022/07/05 05:55:48;;;;;;;7.65;3.45;;;;;;;22.55;100.00;96669.53;5088278;28;19959;-48
2022/07/05 05:58:20;;;;;;;5.65;3.17;;;;;;;22.59;100.00;96680.69;5088569;28;20094;-43
2022/07/05 06:00:52;;;;;;;6.25;3.53;;;;;;;22.45;100.00;96701.41;5086934;28;20063;-46
2022/07/05 06:03:21;;;;;;;4.22;2.83;;;;;;;22.64;100.00;96695.13;5088161;28;20064;-52
2022/07/05 06:05:49;;;;;;;7.67;3.10;;;;;;;22.42;100.00;96702.66;5088612;28;20582;-49
2022/07/05 06:08:18;;;;;;;8.10;3.20;;;;;;;22.45;100.00;96704.94;5088195;28;20064;-49
2022/07/05 06:10:48;;;;;;;6.43;3.10;;;;;;;22.25;100.00;96717.63;5085604;28;20075;-44
2022/07/05 06:13:28;;;;;;;6.60;3.65;;;;;;;22.55;100.00;96704.47;5083634;28;20076;-46
2022/07/05 06:15:56;;;;;;;5.60;3.58;;;;;;;22.30;100.00;96712.44;5088441;28;20059;-44
2022/07/05 06:18:25;;;;;;;8.65;3.67;;;;;;;22.34;100.00;96697.53;5087855;28;20282;-47
2022/07/05 06:20:53;;;;;;;5.93;3.58;;;;;;;22.75;100.00;96701.69;5088028;28;20078;-45
2022/07/05 06:23:22;;;;;;;6.57;3.63;;;;;;;22.66;100.00;96708.34;5088169;28;20510;-51
2022/07/05 06:25:51;;;;;;;4.20;3.17;;;;;;;22.28;100.00;96709.13;5086930;28;20079;-49
2022/07/05 06:28:20;;;;;;;7.70;3.65;;;;;;;22.29;100.00;96710.78;5084954;28;20111;-52
2022/07/05 06:30:48;;;;;;;5.03;3.67;;;;;;;22.12;100.00;96720.31;5087561;28;20070;-52
2022/07/05 06:33:17;;;;;;;6.88;3.45;;;;;;;21.83;100.00;96722.44;5088516;28;20068;-47
2022/07/05 06:35:45;;;;;;;8.25;3.75;;;;;;;22.52;100.00;96719.16;5088227;28;20063;-49
2022/07/05 06:38:13;;;;;;;6.68;3.45;;;;;;;22.47;100.00;96712.75;5083145;28;20044;-46
2022/07/05 06:40:43;;;;;;;8.10;3.60;;;;;;;22.05;100.00;96718.47;5088436;28;20711;-44
2022/07/05 06:43:14;;;;;;;4.85;3.55;;;;;;;22.31;100.00;96724.00;5087755;28;20075;-44
2022/07/05 06:45:43;;;;;;;6.63;3.03;;;;;;;22.09;100.00;96720.72;5088474;28;20068;-48
2022/07/05 06:48:12;;;;;;;8.18;3.28;;;;;;;22.47;100.00;96720.81;5099586;28;20047;-47
2022/07/05 06:50:42;;;;;;;6.60;2.70;;;;;;;22.58;100.00;96714.81;5090308;28;20064;-46
2022/07/05 06:53:11;;;;;;;7.30;3.03;;;;;;;22.69;100.00;96713.31;5087624;28;20063;-47
2022/07/05 06:55:44;;;;;;;6.45;3.20;;;;;;;22.47;100.00;96720.81;5091366;28;20090;-52
2022/07/05 06:58:21;;;;;;;6.05;3.20;;;;;;;22.37;100.00;96723.19;5091124;28;20534;-48
2022/07/05 07:00:50;;;;;;;5.07;2.63;;;;;;;22.47;100.00;96718.13;5090986;28;20074;-48
2022/07/05 07:03:39;;;;;;;6.00;3.35;;;;;;;22.16;100.00;96718.88;5091048;28;20071;-49
2022/07/05 07:06:27;;;;;;;5.03;3.25;;;;;;;22.35;100.00;96720.69;5084861;28;20056;-47
2022/07/05 07:11:40;;;;;;;5.95;3.40;;;;;;;22.68;100.00;96719.72;5090238;28;20055;-51
2022/07/05 07:14:10;;;;;;;5.07;3.13;;;;;;;22.84;100.00;96724.56;5091165;28;20471;-44
2022/07/05 07:16:38;;;;;;;7.20;3.75;;;;;;;23.08;100.00;96723.03;5091679;28;20090;-49
2022/07/05 07:19:07;;;;;;;6.03;3.85;;;;;;;23.27;100.00;96725.81;5091120;28;20490;-47
2022/07/05 07:21:39;;;;;;;4.93;3.30;;;;;;;22.64;100.00;96724.72;5084279;28;20518;-50
2022/07/05 07:24:08;;;;;;;6.20;3.33;;;;;;;22.84;100.00;96718.38;5084570;28;20071;-49
2022/07/05 07:29:20;;;;;;;6.57;2.92;;;;;;;23.00;100.00;96725.16;5085969;28;20477;-48
2022/07/05 07:31:49;;;;;;;5.85;3.30;;;;;;;23.40;100.00;96725.69;5091414;28;20095;-51
2022/07/05 07:34:17;;;;;;;5.38;3.17;;;;;;;23.58;100.00;96722.25;5090918;28;20084;-48
2022/07/05 07:36:45;;;;;;;6.00;3.50;;;;;;;23.79;100.00;96719.19;5090618;28;20056;-47
2022/07/05 07:39:14;;;;;;;4.55;3.28;;;;;;;23.39;100.00;96716.78;5086872;28;20076;-49
2022/07/05 07:41:42;;;;;;;7.93;3.42;;;;;;;24.22;100.00;96715.59;5090151;28;20071;-52
2022/07/05 07:44:10;;;;;;;9.75;3.20;;;;;;;24.46;100.00;96716.59;5099189;28;20071;-48
2022/07/05 07:46:40;;;;;;;3.70;2.92;;;;;;;24.14;100.00;96716.75;5085501;28;20100;-48
2022/07/05 07:49:09;;;;;;;4.78;2.97;;;;;;;23.94;100.00;96721.50;5059680;28;20680;-51
2022/07/05 07:51:38;;;;;;;4.88;3.10;;;;;;;23.81;100.00;96717.09;5061596;28;20519;-47
2022/07/05 07:54:06;;;;;;;6.15;3.38;;;;;;;23.86;100.00;96724.50;5070372;28;20068;-45
2022/07/05 07:56:35;;;;;;;7.25;3.50;;;;;;;23.71;100.00;96729.38;5068504;28;20079;-47
2022/07/05 07:59:03;;;;;;;4.15;3.42;;;;;;;23.93;100.00;96726.06;5069692;28;20601;-45
2022/07/05 08:01:32;;;;;;;4.75;3.60;;;;;;;23.87;100.00;96721.56;5070553;28;20472;-47
2022/07/05 08:04:07;;;;;;;5.38;3.20;;;;;;;24.70;100.00;96722.94;5063653;28;20068;-45
2022/07/05 08:06:35;;;;;;;4.30;2.83;;;;;;;24.68;100.00;96714.25;5066056;28;20068;-48
2022/07/05 08:09:03;;;;;;;3.88;2.42;;;;;;;24.44;100.00;96720.59;5069780;28;20075;-45
2022/07/05 08:11:32;;;;;;;4.07;2.47;;;;;;;23.97;100.00;96706.78;5068061;28;20071;-49
2022/07/05 08:14:00;;;;;;;3.67;2.40;;;;;;;24.17;100.00;96719.00;5070286;28;20559;-47
2022/07/05 08:16:29;;;;;;;3.80;2.60;;;;;;;24.06;100.00;96717.03;5066196;28;20084;-48
2022/07/05 08:21:47;;;;;;;3.55;2.20;;;;;;;25.07;100.00;96717.44;5063914;28;20518;-46
2022/07/05 08:24:15;;;;;;;3.28;2.10;;;;;;;24.99;100.00;96707.00;5065205;28;20072;-46
2022/07/05 08:26:44;;;;;;;3.55;2.47;;;;;;;25.08;100.00;96716.38;5069255;28;20067;-50
2022/07/05 08:29:13;;;;;;;2.53;2.30;;;;;;;25.28;100.00;96706.16;5069636;28;20545;-47
2022/07/05 08:31:52;;;;;;;3.55;2.30;;;;;;;25.11;100.00;96710.56;5065977;28;20178;-52
2022/07/05 08:34:20;;;;;;;3.67;2.40;;;;;;;25.44;100.00;96704.66;5069676;28;20091;-50
2022/07/05 08:36:50;;;;;;;4.88;2.40;;;;;;;25.47;100.00;96706.09;5069143;28;20072;-50
2022/07/05 08:39:19;;;;;;;3.63;2.50;;;;;;;25.03;100.00;96705.47;5068499;28;20107;-51
2022/07/05 08:41:50;;;;;;;3.10;2.30;;;;;;;25.16;100.00;96710.72;5067955;28;20067;-49
2022/07/05 08:44:20;;;;;;;4.72;2.38;;;;;;;25.19;100.00;96706.72;5067745;28;20083;-50
2022/07/05 08:46:52;;;;;;;4.75;2.65;;;;;;;25.49;100.00;96703.94;5062577;28;20087;-47
2022/07/05 08:49:23;;;;;;;2.88;2.30;;;;;;;25.58;100.00;96708.78;5069887;28;20087;-48
2022/07/05 08:51:54;;;;;;;4.45;2.47;;;;;;;25.66;100.00;96710.31;5068403;28;20450;-46
2022/07/05 08:54:24;;;;;;;3.15;2.15;;;;;;;25.62;100.00;96709.13;5068562;28;20064;-49
2022/07/05 08:56:52;;;;;;;;;;;;;;;25.58;100.00;96710.66;5063083;28;20064;-46
2022/07/05 08:59:40;;;;;;;5.47;2.30;;;;;;;25.43;100.00;96710.28;5062015;28;19952;-52
2022/07/05 09:02:13;;;;;;;2.42;2.13;;;;;;;25.28;100.00;96705.34;5066835;28;20064;-46
2022/07/05 09:04:44;;;;;;;4.22;2.30;;;;;;;25.32;100.00;96715.41;5068997;28;20084;-48
2022/07/05 09:07:16;;;;;;;3.17;2.20;;;;;;;25.16;100.00;96713.41;5068519;28;21696;-47
2022/07/05 09:09:48;;;;;;;4.65;2.42;;;;;;;25.21;100.00;96708.13;5068608;28;20079;-47
2022/07/05 09:12:16;;;;;;;4.28;2.30;;;;;;;24.72;100.00;96706.53;5068239;28;20100;-53
2022/07/05 09:14:52;;;;;;;4.60;2.38;;;;;;;24.90;100.00;96708.38;5068225;28;20071;-52
2022/07/05 09:17:20;;;;;;;4.40;2.35;;;;;;;25.07;100.00;96709.34;5068749;28;20068;-50
2022/07/05 09:20:06;;;;;;;7.00;2.40;;;;;;;25.23;100.00;96711.44;5068528;28;20133;-50
2022/07/05 09:22:52;;;;;;;3.55;2.10;;;;;;;25.18;100.00;96714.00;5064689;28;20084;-50
2022/07/05 09:25:23;;;;;;;4.63;2.38;;;;;;;25.35;100.00;96716.84;5068237;28;20133;-48
2022/07/05 09:27:53;;;;;;;3.63;2.25;;;;;;;25.48;100.00;96710.41;5066416;28;20585;-51
2022/07/05 09:30:25;;;;;;;;;;;;;;;25.43;100.00;96711.13;5068853;28;20721;-49
2022/07/05 09:33:01;;;;;;;4.82;2.00;;;;;;;25.43;100.00;96707.56;5068112;28;19955;-47
2022/07/05 09:35:30;;;;;;;3.40;1.85;;;;;;;25.72;100.00;96709.38;5065882;28;20056;-47
2022/07/05 09:38:02;;;;;;;5.35;2.00;;;;;;;25.69;100.00;96714.44;5062220;28;20083;-49
2022/07/05 09:40:32;;;;;;;3.47;2.10;;;;;;;25.77;100.00;96714.91;5068662;28;20076;-47
2022/07/05 09:43:14;;;;;;;3.72;1.95;;;;;;;25.52;100.00;96711.59;5068057;28;20052;-45
2022/07/05 09:45:54;;;;;;;2.13;1.83;;;;;;;25.47;100.00;96712.31;5065097;28;20559;-47
2022/07/05 09:48:23;;;;;;;3.80;2.13;;;;;;;25.44;87.99;96710.06;5068350;28;20080;-50
2022/07/05 09:51:05;;;;;;;2.42;1.70;;;;;;;25.47;100.00;96706.91;5068305;28;20064;-51
2022/07/05 09:53:58;;;;;;;6.38;2.03;;;;;;;25.50;100.00;96709.13;5065246;28;20088;-51
2022/07/05 09:56:31;;;;;;;4.18;2.00;;;;;;;25.80;100.00;96717.16;5064912;28;20049;-51
2022/07/05 09:59:18;;;;;;;2.42;1.40;;;;;;;25.66;96.00;96709.50;5063539;28;20096;-52
2022/07/05 10:01:47;;;;;;;2.42;1.50;;;;;;;25.83;84.10;96717.75;5067693;28;20076;-47
2022/07/05 10:04:32;;;;;;;1.48;1.20;;;;;;;25.72;68.05;96706.69;5069199;28;20533;-47
2022/07/05 10:07:01;;;;;;;2.15;1.48;;;;;;;25.83;90.45;96707.75;5068086;28;20072;-51
2022/07/05 10:09:31;;;;;;;2.00;1.40;;;;;;;25.58;80.98;96699.84;5062979;28;20079;-50
2022/07/05 10:11:59;;;;;;;1.92;1.52;;;;;;;25.94;100.00;96704.22;5068001;28;20072;-47
2022/07/05 10:14:28;;;;;;;3.70;1.60;;;;;;;25.79;95.90;96706.56;5067943;28;20052;-47
2022/07/05 10:17:00;;;;;;;2.45;1.50;;;;;;;25.85;60.90;96707.53;5068216;28;20087;-49
2022/07/05 10:19:34;;;;;;;2.28;1.48;;;;;;;25.87;68.79;96706.22;5068835;28;20292;-49
2022/07/05 10:22:03;;;;;;;4.05;1.70;;;;;;;26.00;77.53;96710.56;5067897;28;20064;-44
2022/07/05 10:24:50;;;;;;;1.35;1.25;;;;;;;26.02;74.04;96713.88;5063683;28;20064;-49
2022/07/05 10:27:19;;;;;;;3.35;1.50;;;;;;;25.78;82.84;96711.16;5071893;28;20593;-50
2022/07/05 10:29:50;;;;;;;1.92;1.30;;;;;;;26.13;100.00;96702.22;5072102;28;20083;-48
2022/07/05 10:32:19;;;;;;;2.85;1.50;;;;;;;26.19;84.63;96705.88;5064737;28;20060;-51
2022/07/05 10:34:49;;;;;;;2.63;1.50;;;;;;;25.92;72.15;96708.25;5067139;28;20519;-49
2022/07/05 10:37:34;;;;;;;2.00;1.50;;;;;;;26.15;85.99;96716.34;5066526;28;20476;-50
2022/07/05 10:40:06;;;;;;;3.33;1.45;;;;;;;26.45;74.76;96718.03;5071218;28;20071;-53
2022/07/05 10:42:38;;;;;;;2.15;1.50;;;;;;;26.68;66.85;96714.47;5070402;28;20071;-47
2022/07/05 10:45:27;;;;;;;3.72;1.65;;;;;;;26.39;74.89;96706.25;5069556;28;20558;-51
2022/07/05 10:48:15;;;;;;;3.47;1.58;;;;;;;25.92;80.58;96717.16;5066524;28;20464;-52
2022/07/05 10:50:49;;;;;;;4.70;1.60;;;;;;;26.23;60.51;96710.53;5070973;28;20076;-48
2022/07/05 10:53:18;;;;;;;1.98;1.42;;;;;;;26.59;84.15;96715.91;5070323;28;20472;-49
2022/07/05 10:55:56;;;;;;;3.50;1.50;;;;;;;26.78;57.63;96709.25;5070318;28;20577;-47
2022/07/05 10:58:33;;;;;;;2.95;1.70;;;;;;;26.68;59.30;96715.28;5069284;28;20058;-45
2022/07/05 11:01:33;;;;;;;2.58;1.30;;;;;;;26.58;56.20;96706.97;5071033;28;20063;-44
2022/07/05 11:04:29;;;;;;;1.85;1.60;;;;;;;26.62;87.43;96716.25;5071248;28;20067;-48
2022/07/05 11:06:59;;;;;;;2.47;1.40;;;;;;;26.55;55.53;96706.63;5069728;28;20114;-48
2022/07/05 11:09:28;;;;;;;5.15;1.40;;;;;;;26.42;56.75;96705.78;5071383;28;20064;-44
2022/07/05 11:12:06;;;;;;;3.53;1.50;;;;;;;26.81;59.77;96707.97;5070992;28;20076;-48
2022/07/05 11:15:05;;;;;;;2.60;1.55;;;;;;;26.69;60.12;96705.28;5065239;28;20057;-51
2022/07/05 11:17:35;;;;;;;2.97;1.45;;;;;;;26.55;53.63;96702.03;5070726;28;20549;-49
2022/07/05 11:20:30;;;;;;;3.00;1.70;;;;;;;26.65;61.24;96699.53;5070011;28;20060;-53
2022/07/05 11:23:10;;;;;;;3.40;1.70;;;;;;;26.22;52.49;96694.53;5064224;28;20087;-47
2022/07/05 11:25:40;;;;;;;;;;;;;;;26.71;68.82;96693.16;5069444;28;20099;-52
2022/07/05 11:28:14;;;;;;;3.80;1.42;;;;;;;26.81;57.33;96689.00;5063994;28;20528;-47
2022/07/05 11:30:51;;;;;;;3.28;1.70;;;;;;;26.92;52.72;96686.25;5070210;28;20064;-49
2022/07/05 11:33:30;;;;;;;2.17;1.67;;;;;;;27.18;43.67;96676.69;5067036;28;20075;-51
2022/07/05 11:35:59;;;;;;;2.17;1.58;;;;;;;27.32;60.33;96682.63;5069421;28;20057;-45
2022/07/05 11:38:28;;;;;;;2.35;1.60;;;;;;;27.13;55.98;96679.34;5069989;28;20071;-45
2022/07/05 11:41:16;;;;;;;2.72;1.67;;;;;;;26.97;68.08;96680.91;5077708;28;20058;-51
2022/07/05 11:43:56;;;;;;;1.70;1.60;;;;;;;26.86;65.98;96672.84;5090095;28;20086;-47
2022/07/05 11:46:24;;;;;;;2.47;1.83;;;;;;;27.03;52.37;96678.31;5067833;28;20457;-52
2022/07/05 11:49:13;;;;;;;3.35;1.60;;;;;;;26.85;49.34;96674.75;5064798;28;20423;-48
2022/07/05 11:51:41;;;;;;;2.00;1.50;;;;;;;27.23;49.07;96678.69;5065283;28;20577;-49
2022/07/05 11:54:10;;;;;;;2.53;1.50;;;;;;;27.25;64.92;96673.00;5059670;28;20072;-47
2022/07/05 11:56:44;;;;;;;2.30;1.45;;;;;;;26.87;52.47;96672.59;5078678;28;20060;-50